Airport View

Enter AWOS ICAO identifier for current METAR.

ex. KFNL

KSEG 040453Z AUTO 00000KT 10SM BKN110 21/19 A3001 RMK AO2 SLP157 T02110194 403000172

4 Aug 2020 05:08

Frequency: 123.975

Phone: 570-374-4099

Other Area AWOS: KIPT - KMUI - KLHV - KRVL

TAF AMD KIPT 040404Z 0404/0424 11006KT P6SM VCSH FEW040 BKN100 FM040600 12009KT P6SM -SHRA OVC018 WS020/20040KT FM040800 10009KT P6SM -RA OVC009 FM041600 36008KT 5SM -RA OVC015 FM042000 30006KT P6SM OVC020